TimeCST,TemperatureF,Dew PointF,Humidity,Sea Level PressureIn,VisibilityMPH,Wind Direction,Wind SpeedMPH,Gust SpeedMPH,PrecipitationIn,Events,Conditions,WindDirDegrees,DateUTC
12:54 AM,39.9,36.0,86,30.12,10.0,North,-9999.0,-,N/A,,Mostly Cloudy,0,2012-11-06 06:54:00
1:54 AM,36.0,34.0,93,30.12,10.0,North,-9999.0,-,N/A,,Clear,0,2012-11-06 07:54:00
2:54 AM,33.1,32.0,96,30.14,9.0,North,-9999.0,-,N/A,,Clear,0,2012-11-06 08:54:00
3:54 AM,33.1,32.0,96,30.13,10.0,North,-9999.0,-,N/A,,Scattered Clouds,0,2012-11-06 09:54:00
4:54 AM,34.0,33.1,96,30.11,9.0,North,-9999.0,-,N/A,,Clear,0,2012-11-06 10:54:00
5:54 AM,35.1,34.0,96,30.12,10.0,North,-9999.0,-,N/A,,Clear,0,2012-11-06 11:54:00
6:54 AM,32.0,30.9,96,30.12,8.0,North,-9999.0,-,N/A,,Partly Cloudy,0,2012-11-06 12:54:00
7:54 AM,37.9,36.0,93,30.14,8.0,North,-9999.0,-,N/A,,Clear,0,2012-11-06 13:54:00
8:54 AM,45.0,39.0,80,30.14,10.0,North,-9999.0,-,N/A,,Clear,0,2012-11-06 14:54:00
9:54 AM,51.1,39.0,63,30.12,10.0,North,-9999.0,-,N/A,,Clear,0,2012-11-06 15:54:00
10:54 AM,57.0,37.9,49,30.12,10.0,North,-9999.0,-,N/A,,Clear,0,2012-11-06 16:54:00
11:54 AM,61.0,39.0,44,30.12,10.0,North,-9999.0,-,N/A,,Clear,0,2012-11-06 17:54:00
12:54 PM,64.9,37.0,36,30.09,10.0,North,-9999.0,-,N/A,,Clear,0,2012-11-06 18:54:00
1:54 PM,66.9,33.1,28,30.08,10.0,North,17.3,25.3,N/A,,Clear,360,2012-11-06 19:54:00
2:54 PM,66.9,33.1,28,30.08,10.0,North,12.7,20.7,N/A,,Clear,350,2012-11-06 20:54:00
3:54 PM,64.9,33.1,31,30.09,10.0,NNW,12.7,-,N/A,,Clear,330,2012-11-06 21:54:00
4:54 PM,62.1,30.0,30,30.10,10.0,NNW,10.4,-,N/A,,Clear,340,2012-11-06 22:54:00
5:54 PM,52.0,30.0,43,30.12,10.0,NW,8.1,-,N/A,,Clear,310,2012-11-06 23:54:00
6:54 PM,50.0,30.0,46,30.14,10.0,NW,5.8,-,N/A,,Clear,310,2012-11-07 00:54:00
7:54 PM,46.9,30.0,52,30.15,10.0,NW,5.8,-,N/A,,Clear,310,2012-11-07 01:54:00
8:54 PM,46.0,30.0,54,30.16,10.0,WNW,6.9,-,N/A,,Clear,300,2012-11-07 02:54:00
9:54 PM,46.0,28.0,50,30.16,10.0,North,8.1,-,N/A,,Clear,360,2012-11-07 03:54:00
10:54 PM,43.0,28.0,56,30.15,10.0,NW,3.5,-,N/A,,Clear,320,2012-11-07 04:54:00
11:54 PM,37.9,27.0,65,30.16,10.0,Calm,Calm,-,N/A,,Clear,0,2012-11-07 05:54:00